• Join FlightAware (Why Join?)
  • Login
  • US Flag 
07:17PM EST


 

Airport Tracker/Info


-or-


 

Live Flight TrackerFlight Track Log ✈ SWA533 ✈ 25-May-2013 ✈ KBWI - KALB

Flight Track Log - Related Links

Times and Time Zones

All times are in EDT time to prevent confusion due to time zone crossing. See the SWA533 flight status page for this flight to view local times or setup timezone preferences in your user account.

Time Position Orientation Groundspeed Altitude Reporting Facility
EDT Latitude Longitude Course Direction KTS MPH feet Rate Location/Type
11:47AM 39.1667 -76.7333 180° South 175 201 2,500  Level Potomac TRACON
11:48AM 39.1167 -76.7333 180° South 276 318 4,900 3,120 Climbing Potomac TRACON
11:49AM 39.1000 -76.6333 102° East 308 354 8,500 3,000 Climbing Potomac TRACON
11:50AM 39.1231 -76.4450 81° East 328 377 13,600 2,580 Climbing Washington Center
11:51AM 39.1364 -76.3061 83° East 360 414 16,000 1,260 Climbing Washington Center
11:52AM 39.1558 -76.1644 80° East 382 440 16,100 1,260 Climbing Washington Center
11:53AM 39.1753 -76.0172 80° East 400 460 18,500 2,340 Climbing Washington Center
11:54AM 39.2028 -75.8756 76° East 407 468 20,900 2,400 Climbing Washington Center
11:55AM 39.2800 -75.7658 48° Northeast 402 463 23,300 2,640 Climbing Washington Center
11:56AM 39.3636 -75.6586 45° Northeast 402 463 26,200 2,760 Climbing Washington Center
11:57AM 39.4447 -75.5567 44° Northeast 402 463 28,900 780 Climbing Washington Center
12:00PM 39.6517 -75.2872 45° Northeast 437 503 29,000  Climbing New York Center
12:01PM 39.7444 -75.1500 49° Northeast 449 517 29,000  Level New York Center
12:02PM 39.8303 -75.0283 47° Northeast 454 522 29,000  Level New York Center
12:03PM 39.9181 -74.9039 47° Northeast 454 522 29,000  Level New York Center
12:04PM 40.0200 -74.7961 39° Northeast 454 522 29,000  Level New York Center
12:05PM 40.1133 -74.6819 43° Northeast 454 522 29,000  Level New York Center
12:06PM 40.2089 -74.5678 42° Northeast 454 522 29,000  Level New York Center
12:07PM 40.3022 -74.4506 44° Northeast 459 528 29,000  Level New York Center
12:09PM 40.4942 -74.2192 42° Northeast 470 541 29,000 -120 Level Boston Center
12:10PM 40.5897 -74.1017 43° Northeast 470 541 28,700 -1,140 Descending Boston Center
12:11PM 40.6767 -74.0000 42° Northeast 447 514 26,800 -2,160 Descending Boston Center
12:12PM 40.7611 -73.9006 42° Northeast 421 484 24,400 -1,440 Descending Boston Center
12:13PM 40.8439 -73.8008 42° Northeast 407 468 24,000 -540 Descending Boston Center
12:14PM 40.9406 -73.7261 30° Northeast 392 451 23,400 -540 Descending Boston Center
12:15PM 41.0492 -73.7089 North 378 435 23,000 -300 Descending Boston Center
12:16PM 41.1575 -73.6917 North 378 435 22,900 -600 Descending Boston Center
12:17PM 41.2600 -73.6717 North 378 435 21,900 -1,020 Descending Boston Center
12:18PM 41.3622 -73.6542 North 372 428 20,900 -1,080 Descending Boston Center
12:19PM 41.4644 -73.6367 North 367 422 19,800 -960 Descending Boston Center
12:20PM 41.5522 -73.6217 North 367 422 19,000 -960 Descending Boston Center
12:21PM 41.6608 -73.6044 North 367 422 17,900 -1,020 Descending Boston Center
12:22PM 41.7464 -73.5892 North 360 414 17,000 -1,020 Descending Boston Center
12:23PM 41.8528 -73.5717 North 354 407 15,900 -1,260 Descending Boston Center
12:24PM 41.9322 -73.5592 North 351 404 14,700 -1,800 Descending Boston Center
12:25PM 42.0178 -73.5439 North 341 392 12,800 -1,980 Descending Boston Center
12:25PM 42.0428 -73.5386 North 349 402 12,400 -1,680 Descending Boston Center
12:26PM 42.1117 -73.5314 North 331 381 11,100 -900 Descending Boston Center
12:27PM 42.1883 -73.5778 336° Northwest 300 345 10,900 -840 Descending Boston Center
12:28PM 42.2589 -73.6183 337° Northwest 272 313 9,500 -1,680 Descending Boston Center
12:28PM 42.3208 -73.6558 336° Northwest 250 288 7,700 -1,740 Descending Boston Center
12:29PM 42.3394 -73.6675 335° Northwest 267 307 7,400 -1,620 Descending Boston Center
12:29PM 42.3831 -73.6908 338° Northwest 244 281 6,100 -1,620 Descending Boston Center
12:30PM 42.3956 -73.6994 333° Northwest 238 274 5,800 -1,680 Descending Boston Center
12:31PM 42.4369 -73.7286 333° Northwest 222 255 4,400 -2,040 Descending Boston Center
12:31PM 42.4575 -73.7375 342° North 225 259 3,800 -2,100 Descending Boston Center
12:32PM 42.4969 -73.7608 336° Northwest 213 245 2,300 -1,740 Descending Boston Center
12:32PM 42.5072 -73.7667 337° Northwest 219 252 2,100 -300 Descending Boston Center
12:33PM 42.5486 -73.7956 333° Northwest 205 236 2,000 -120 Descending Boston Center
12:33PM 42.5611 -73.7986 350° North 200 230 2,000  Level Boston Center
12:34PM 42.5986 -73.7997 359° North 178 205 2,000  Level Boston Center
12:35PM 42.6422 -73.8033 357° North 123 142 2,000 -240 Level Boston Center
12:36PM 42.6694 -73.8039 359° North 122 140 1,600 -600 Descending Boston Center
12:37PM 42.7069 -73.8047 359° North 119 137 900 -720 Descending Boston Center
12:40PM 42.7333 -73.8000 345° North  Level FlightAware Approximate